Aviation Digital Data Service (ADDS)

Output produced by METARs form (1405 UTC 22 April 2021)
found at http://www.aviationweather.gov/metar/data/
 
Forecast for: VVCT (CAN THO , VN)
Text: TAF VVCT 221100Z 2212/2312 VRB03KT 9999 SCT015 SCT040
Forecast period: 1200 to 2200 UTC 22 April 2021
Forecast type: FROM: standard forecast or significant change
Winds: variable direction winds at 3 MPH (3 knots; 1.5 m/s)
Visibility: 6 or more miles (10+ km)
Ceiling: at least 12,000 feet AGL
Clouds: scattered clouds at 1500 feet AGL
scattered clouds at 4000 feet AGL
Weather: no significant weather forecast for this period
Text: BECMG 2222/2300 22010KT
Forecast period: 2200 UTC 22 April 2021 to 1200 UTC 23 April 2021
Forecast type: BECOMING: Conditions expected to become as follows by 0000 UTC 23 April 2021
Winds: from the SW (220 degrees) at 12 MPH (10 knots; 5.1 m/s)
Visibility: 6 or more miles (10+ km)
Ceiling: at least 12,000 feet AGL
Clouds: scattered clouds at 1500 feet AGL
scattered clouds at 4000 feet AGL
Weather: no significant weather forecast for this period